sensor_id;sensor_type;location;lat;lon;timestamp;P1;durP1;ratioP1;P2;durP2;ratioP2
21354;SDS011;10835;50.148;19.760;2022-08-21T00:02:02;19.20;;;11.70;;
21354;SDS011;10835;50.148;19.760;2022-08-21T00:04:30;21.63;;;12.30;;
21354;SDS011;10835;50.148;19.760;2022-08-21T00:06:58;19.67;;;12.52;;
21354;SDS011;10835;50.148;19.760;2022-08-21T00:09:26;22.60;;;11.50;;
21354;SDS011;10835;50.148;19.760;2022-08-21T00:11:55;19.58;;;11.15;;
21354;SDS011;10835;50.148;19.760;2022-08-21T00:14:23;19.83;;;10.95;;
21354;SDS011;10835;50.148;19.760;2022-08-21T00:16:57;17.48;;;11.02;;
21354;SDS011;10835;50.148;19.760;2022-08-21T00:19:26;21.60;;;11.43;;
21354;SDS011;10835;50.148;19.760;2022-08-21T00:21:54;19.92;;;11.88;;
21354;SDS011;10835;50.148;19.760;2022-08-21T00:24:25;18.23;;;11.27;;
21354;SDS011;10835;50.148;19.760;2022-08-21T00:26:53;17.70;;;11.75;;
21354;SDS011;10835;50.148;19.760;2022-08-21T00:29:23;20.80;;;10.88;;
21354;SDS011;10835;50.148;19.760;2022-08-21T00:31:51;20.48;;;11.82;;
21354;SDS011;10835;50.148;19.760;2022-08-21T00:34:19;20.25;;;11.38;;
21354;SDS011;10835;50.148;19.760;2022-08-21T00:36:47;17.10;;;10.23;;
21354;SDS011;10835;50.148;19.760;2022-08-21T00:39:16;19.05;;;11.65;;
21354;SDS011;10835;50.148;19.760;2022-08-21T00:41:44;17.10;;;10.18;;
21354;SDS011;10835;50.148;19.760;2022-08-21T00:44:13;19.98;;;9.85;;
21354;SDS011;10835;50.148;19.760;2022-08-21T00:46:43;18.42;;;11.13;;
21354;SDS011;10835;50.148;19.760;2022-08-21T00:49:12;16.02;;;10.32;;
21354;SDS011;10835;50.148;19.760;2022-08-21T00:51:42;21.45;;;12.93;;
21354;SDS011;10835;50.148;19.760;2022-08-21T00:54:13;22.75;;;11.88;;
21354;SDS011;10835;50.148;19.760;2022-08-21T00:56:45;19.85;;;12.60;;
21354;SDS011;10835;50.148;19.760;2022-08-21T00:59:16;16.88;;;10.88;;
21354;SDS011;10835;50.148;19.760;2022-08-21T01:01:47;20.20;;;12.48;;
21354;SDS011;10835;50.148;19.760;2022-08-21T01:04:16;21.20;;;13.93;;
21354;SDS011;10835;50.148;19.760;2022-08-21T01:06:44;19.13;;;12.55;;
21354;SDS011;10835;50.148;19.760;2022-08-21T01:09:13;30.88;;;16.48;;
21354;SDS011;10835;50.148;19.760;2022-08-21T01:11:41;19.88;;;12.90;;
21354;SDS011;10835;50.148;19.760;2022-08-21T01:14:10;21.08;;;12.57;;
21354;SDS011;10835;50.148;19.760;2022-08-21T01:16:39;21.75;;;15.55;;
21354;SDS011;10835;50.148;19.760;2022-08-21T01:19:10;24.75;;;16.13;;
21354;SDS011;10835;50.148;19.760;2022-08-21T01:21:40;22.73;;;14.63;;
21354;SDS011;10835;50.148;19.760;2022-08-21T01:24:09;27.15;;;16.10;;
21354;SDS011;10835;50.148;19.760;2022-08-21T01:26:38;26.73;;;16.33;;
21354;SDS011;10835;50.148;19.760;2022-08-21T01:29:09;23.25;;;16.33;;
21354;SDS011;10835;50.148;19.760;2022-08-21T01:31:41;22.70;;;14.82;;
21354;SDS011;10835;50.148;19.760;2022-08-21T01:34:10;25.00;;;14.57;;
21354;SDS011;10835;50.148;19.760;2022-08-21T01:36:38;23.02;;;14.38;;
21354;SDS011;10835;50.148;19.760;2022-08-21T01:39:08;24.50;;;13.68;;
21354;SDS011;10835;50.148;19.760;2022-08-21T01:41:36;21.13;;;13.20;;
21354;SDS011;10835;50.148;19.760;2022-08-21T01:44:04;21.27;;;12.85;;
21354;SDS011;10835;50.148;19.760;2022-08-21T01:46:32;26.88;;;15.10;;
21354;SDS011;10835;50.148;19.760;2022-08-21T01:49:00;28.33;;;15.73;;
21354;SDS011;10835;50.148;19.760;2022-08-21T01:51:29;22.20;;;13.75;;
21354;SDS011;10835;50.148;19.760;2022-08-21T01:53:58;25.77;;;14.07;;
21354;SDS011;10835;50.148;19.760;2022-08-21T01:56:26;25.58;;;14.63;;
21354;SDS011;10835;50.148;19.760;2022-08-21T01:58:55;21.15;;;13.27;;
21354;SDS011;10835;50.148;19.760;2022-08-21T02:01:23;24.65;;;13.25;;
21354;SDS011;10835;50.148;19.760;2022-08-21T02:03:51;19.83;;;12.18;;
21354;SDS011;10835;50.148;19.760;2022-08-21T02:06:22;20.38;;;12.00;;
21354;SDS011;10835;50.148;19.760;2022-08-21T02:08:50;20.23;;;12.63;;
21354;SDS011;10835;50.148;19.760;2022-08-21T02:11:20;21.52;;;13.07;;
21354;SDS011;10835;50.148;19.760;2022-08-21T02:13:48;16.13;;;10.52;;
21354;SDS011;10835;50.148;19.760;2022-08-21T02:16:16;19.00;;;12.68;;
21354;SDS011;10835;50.148;19.760;2022-08-21T02:18:45;21.17;;;14.07;;
21354;SDS011;10835;50.148;19.760;2022-08-21T02:21:13;28.52;;;15.00;;
21354;SDS011;10835;50.148;19.760;2022-08-21T02:23:41;22.38;;;13.77;;
21354;SDS011;10835;50.148;19.760;2022-08-21T02:26:10;23.58;;;13.73;;
21354;SDS011;10835;50.148;19.760;2022-08-21T02:28:39;20.95;;;13.52;;
21354;SDS011;10835;50.148;19.760;2022-08-21T02:31:08;24.00;;;14.38;;
21354;SDS011;10835;50.148;19.760;2022-08-21T02:33:36;20.92;;;13.60;;
21354;SDS011;10835;50.148;19.760;2022-08-21T02:36:05;18.73;;;12.00;;
21354;SDS011;10835;50.148;19.760;2022-08-21T02:38:34;17.05;;;11.80;;
21354;SDS011;10835;50.148;19.760;2022-08-21T02:41:04;20.50;;;12.82;;
21354;SDS011;10835;50.148;19.760;2022-08-21T02:43:36;19.05;;;11.98;;
21354;SDS011;10835;50.148;19.760;2022-08-21T02:46:07;17.77;;;12.15;;
21354;SDS011;10835;50.148;19.760;2022-08-21T02:48:37;27.23;;;16.23;;
21354;SDS011;10835;50.148;19.760;2022-08-21T02:51:06;26.67;;;15.90;;
21354;SDS011;10835;50.148;19.760;2022-08-21T02:53:37;29.52;;;14.98;;
21354;SDS011;10835;50.148;19.760;2022-08-21T02:56:08;19.77;;;12.52;;
21354;SDS011;10835;50.148;19.760;2022-08-21T02:58:40;19.15;;;11.95;;
21354;SDS011;10835;50.148;19.760;2022-08-21T03:01:11;23.88;;;11.73;;
21354;SDS011;10835;50.148;19.760;2022-08-21T03:03:41;19.02;;;10.88;;
21354;SDS011;10835;50.148;19.760;2022-08-21T03:06:12;18.80;;;11.80;;
21354;SDS011;10835;50.148;19.760;2022-08-21T03:08:41;17.25;;;10.50;;
21354;SDS011;10835;50.148;19.760;2022-08-21T03:11:11;17.70;;;10.88;;
21354;SDS011;10835;50.148;19.760;2022-08-21T03:13:41;18.08;;;11.02;;
21354;SDS011;10835;50.148;19.760;2022-08-21T03:16:10;19.33;;;10.18;;
21354;SDS011;10835;50.148;19.760;2022-08-21T03:18:39;16.83;;;11.65;;
21354;SDS011;10835;50.148;19.760;2022-08-21T03:21:07;19.27;;;11.25;;
21354;SDS011;10835;50.148;19.760;2022-08-21T03:23:35;17.90;;;9.93;;
21354;SDS011;10835;50.148;19.760;2022-08-21T03:26:08;17.50;;;10.77;;
21354;SDS011;10835;50.148;19.760;2022-08-21T03:28:38;14.60;;;9.50;;
21354;SDS011;10835;50.148;19.760;2022-08-21T03:31:06;15.85;;;9.98;;
21354;SDS011;10835;50.148;19.760;2022-08-21T03:33:36;14.65;;;9.30;;
21354;SDS011;10835;50.148;19.760;2022-08-21T03:36:06;18.00;;;9.32;;
21354;SDS011;10835;50.148;19.760;2022-08-21T03:38:35;16.20;;;9.70;;
21354;SDS011;10835;50.148;19.760;2022-08-21T03:41:05;15.95;;;9.18;;
21354;SDS011;10835;50.148;19.760;2022-08-21T03:43:34;15.05;;;9.43;;
21354;SDS011;10835;50.148;19.760;2022-08-21T03:46:03;20.70;;;10.15;;
21354;SDS011;10835;50.148;19.760;2022-08-21T03:48:32;14.48;;;8.38;;
21354;SDS011;10835;50.148;19.760;2022-08-21T03:51:03;19.15;;;9.55;;
21354;SDS011;10835;50.148;19.760;2022-08-21T03:53:32;15.32;;;10.07;;
21354;SDS011;10835;50.148;19.760;2022-08-21T03:56:01;17.80;;;10.63;;
21354;SDS011;10835;50.148;19.760;2022-08-21T03:58:30;16.10;;;10.38;;
21354;SDS011;10835;50.148;19.760;2022-08-21T04:00:58;16.15;;;10.20;;
21354;SDS011;10835;50.148;19.760;2022-08-21T04:03:28;21.38;;;14.27;;
21354;SDS011;10835;50.148;19.760;2022-08-21T04:05:56;26.48;;;15.60;;
21354;SDS011;10835;50.148;19.760;2022-08-21T04:08:25;23.52;;;14.65;;
21354;SDS011;10835;50.148;19.760;2022-08-21T04:10:57;27.98;;;15.48;;
21354;SDS011;10835;50.148;19.760;2022-08-21T04:13:25;24.52;;;14.45;;
21354;SDS011;10835;50.148;19.760;2022-08-21T04:15:55;28.15;;;16.55;;
21354;SDS011;10835;50.148;19.760;2022-08-21T04:18:24;31.20;;;17.38;;
21354;SDS011;10835;50.148;19.760;2022-08-21T04:20:52;28.85;;;16.75;;
21354;SDS011;10835;50.148;19.760;2022-08-21T04:23:23;28.00;;;13.68;;
21354;SDS011;10835;50.148;19.760;2022-08-21T04:25:54;17.58;;;11.50;;
21354;SDS011;10835;50.148;19.760;2022-08-21T04:28:23;19.25;;;10.52;;
21354;SDS011;10835;50.148;19.760;2022-08-21T04:30:54;26.00;;;16.90;;
21354;SDS011;10835;50.148;19.760;2022-08-21T04:33:23;36.65;;;21.73;;
21354;SDS011;10835;50.148;19.760;2022-08-21T04:35:51;32.53;;;19.83;;
21354;SDS011;10835;50.148;19.760;2022-08-21T04:38:19;35.38;;;20.67;;
21354;SDS011;10835;50.148;19.760;2022-08-21T04:40:49;24.42;;;13.60;;
21354;SDS011;10835;50.148;19.760;2022-08-21T04:43:18;21.67;;;11.32;;
21354;SDS011;10835;50.148;19.760;2022-08-21T04:45:48;18.80;;;11.40;;
21354;SDS011;10835;50.148;19.760;2022-08-21T04:48:21;18.75;;;10.80;;
21354;SDS011;10835;50.148;19.760;2022-08-21T04:50:52;20.00;;;10.93;;
21354;SDS011;10835;50.148;19.760;2022-08-21T04:53:24;17.17;;;10.73;;
21354;SDS011;10835;50.148;19.760;2022-08-21T04:56:00;20.73;;;11.95;;
21354;SDS011;10835;50.148;19.760;2022-08-21T04:58:31;23.77;;;12.27;;
21354;SDS011;10835;50.148;19.760;2022-08-21T05:01:00;19.63;;;13.05;;
21354;SDS011;10835;50.148;19.760;2022-08-21T05:03:30;23.85;;;13.95;;
21354;SDS011;10835;50.148;19.760;2022-08-21T05:06:00;21.70;;;12.88;;
21354;SDS011;10835;50.148;19.760;2022-08-21T05:08:32;21.00;;;12.45;;
21354;SDS011;10835;50.148;19.760;2022-08-21T05:11:03;21.52;;;11.98;;
21354;SDS011;10835;50.148;19.760;2022-08-21T05:13:32;20.92;;;12.20;;
21354;SDS011;10835;50.148;19.760;2022-08-21T05:16:00;20.60;;;11.77;;
21354;SDS011;10835;50.148;19.760;2022-08-21T05:18:29;17.75;;;10.98;;
21354;SDS011;10835;50.148;19.760;2022-08-21T05:20:57;19.65;;;11.55;;
21354;SDS011;10835;50.148;19.760;2022-08-21T05:23:25;25.40;;;12.90;;
21354;SDS011;10835;50.148;19.760;2022-08-21T05:25:53;21.02;;;12.95;;
21354;SDS011;10835;50.148;19.760;2022-08-21T05:28:23;20.58;;;12.07;;
21354;SDS011;10835;50.148;19.760;2022-08-21T05:30:52;17.58;;;11.43;;
21354;SDS011;10835;50.148;19.760;2022-08-21T05:33:22;22.08;;;13.00;;
21354;SDS011;10835;50.148;19.760;2022-08-21T05:35:50;18.67;;;11.77;;
21354;SDS011;10835;50.148;19.760;2022-08-21T05:38:19;17.90;;;11.43;;
21354;SDS011;10835;50.148;19.760;2022-08-21T05:40:47;19.00;;;10.98;;
21354;SDS011;10835;50.148;19.760;2022-08-21T05:43:15;17.60;;;11.63;;
21354;SDS011;10835;50.148;19.760;2022-08-21T05:45:44;17.02;;;10.70;;
21354;SDS011;10835;50.148;19.760;2022-08-21T05:48:14;19.15;;;11.57;;
21354;SDS011;10835;50.148;19.760;2022-08-21T05:50:44;17.00;;;11.82;;
21354;SDS011;10835;50.148;19.760;2022-08-21T05:53:14;17.23;;;11.60;;
21354;SDS011;10835;50.148;19.760;2022-08-21T05:55:43;14.75;;;9.50;;
21354;SDS011;10835;50.148;19.760;2022-08-21T05:58:13;19.63;;;12.90;;
21354;SDS011;10835;50.148;19.760;2022-08-21T06:00:42;18.65;;;12.48;;
21354;SDS011;10835;50.148;19.760;2022-08-21T06:03:12;21.45;;;12.77;;
21354;SDS011;10835;50.148;19.760;2022-08-21T06:05:43;18.02;;;12.32;;
21354;SDS011;10835;50.148;19.760;2022-08-21T06:08:12;21.15;;;12.52;;
21354;SDS011;10835;50.148;19.760;2022-08-21T06:10:41;17.92;;;11.75;;
21354;SDS011;10835;50.148;19.760;2022-08-21T06:13:09;23.33;;;13.00;;
21354;SDS011;10835;50.148;19.760;2022-08-21T06:15:38;20.35;;;12.80;;
21354;SDS011;10835;50.148;19.760;2022-08-21T06:18:06;19.20;;;12.50;;
21354;SDS011;10835;50.148;19.760;2022-08-21T06:20:36;20.65;;;12.23;;
21354;SDS011;10835;50.148;19.760;2022-08-21T06:23:04;18.65;;;11.73;;
21354;SDS011;10835;50.148;19.760;2022-08-21T06:25:33;22.70;;;12.23;;
21354;SDS011;10835;50.148;19.760;2022-08-21T06:28:02;15.55;;;9.07;;
21354;SDS011;10835;50.148;19.760;2022-08-21T06:30:32;20.85;;;12.35;;
21354;SDS011;10835;50.148;19.760;2022-08-21T06:33:00;20.20;;;11.32;;
21354;SDS011;10835;50.148;19.760;2022-08-21T06:35:29;19.77;;;12.15;;
21354;SDS011;10835;50.148;19.760;2022-08-21T06:38:01;18.90;;;12.65;;
21354;SDS011;10835;50.148;19.760;2022-08-21T06:40:30;24.02;;;12.60;;
21354;SDS011;10835;50.148;19.760;2022-08-21T06:43:05;21.42;;;12.60;;
21354;SDS011;10835;50.148;19.760;2022-08-21T06:45:34;23.85;;;13.75;;
21354;SDS011;10835;50.148;19.760;2022-08-21T06:48:02;18.75;;;12.30;;
21354;SDS011;10835;50.148;19.760;2022-08-21T06:50:31;18.85;;;12.45;;
21354;SDS011;10835;50.148;19.760;2022-08-21T06:53:01;20.23;;;12.38;;
21354;SDS011;10835;50.148;19.760;2022-08-21T06:55:31;18.52;;;11.48;;
21354;SDS011;10835;50.148;19.760;2022-08-21T06:57:59;15.45;;;9.80;;
21354;SDS011;10835;50.148;19.760;2022-08-21T07:00:27;16.38;;;12.05;;
21354;SDS011;10835;50.148;19.760;2022-08-21T07:02:56;22.27;;;13.55;;
21354;SDS011;10835;50.148;19.760;2022-08-21T07:05:25;24.83;;;13.30;;
21354;SDS011;10835;50.148;19.760;2022-08-21T07:07:54;20.65;;;12.82;;
21354;SDS011;10835;50.148;19.760;2022-08-21T07:10:24;23.83;;;13.60;;
21354;SDS011;10835;50.148;19.760;2022-08-21T07:12:53;16.63;;;11.48;;
21354;SDS011;10835;50.148;19.760;2022-08-21T07:15:27;20.98;;;12.13;;
21354;SDS011;10835;50.148;19.760;2022-08-21T07:17:56;21.63;;;12.50;;
21354;SDS011;10835;50.148;19.760;2022-08-21T07:20:25;20.67;;;11.43;;
21354;SDS011;10835;50.148;19.760;2022-08-21T07:22:54;19.08;;;11.18;;
21354;SDS011;10835;50.148;19.760;2022-08-21T07:25:25;18.35;;;11.07;;
21354;SDS011;10835;50.148;19.760;2022-08-21T07:27:53;22.77;;;13.57;;
21354;SDS011;10835;50.148;19.760;2022-08-21T07:30:22;19.25;;;11.63;;
21354;SDS011;10835;50.148;19.760;2022-08-21T07:32:54;21.17;;;12.40;;
21354;SDS011;10835;50.148;19.760;2022-08-21T07:35:24;18.10;;;10.93;;
21354;SDS011;10835;50.148;19.760;2022-08-21T07:37:54;18.75;;;11.15;;
21354;SDS011;10835;50.148;19.760;2022-08-21T07:40:27;17.75;;;12.25;;
21354;SDS011;10835;50.148;19.760;2022-08-21T07:42:55;23.02;;;12.60;;
21354;SDS011;10835;50.148;19.760;2022-08-21T07:45:24;19.67;;;12.68;;
21354;SDS011;10835;50.148;19.760;2022-08-21T07:47:52;20.67;;;12.70;;
21354;SDS011;10835;50.148;19.760;2022-08-21T07:50:23;18.80;;;11.63;;
21354;SDS011;10835;50.148;19.760;2022-08-21T07:52:51;16.92;;;11.80;;
21354;SDS011;10835;50.148;19.760;2022-08-21T07:55:20;20.90;;;11.93;;
21354;SDS011;10835;50.148;19.760;2022-08-21T07:57:50;21.80;;;12.85;;
21354;SDS011;10835;50.148;19.760;2022-08-21T08:00:19;22.33;;;13.85;;
21354;SDS011;10835;50.148;19.760;2022-08-21T08:02:50;19.63;;;12.43;;
21354;SDS011;10835;50.148;19.760;2022-08-21T08:05:21;20.90;;;12.07;;
21354;SDS011;10835;50.148;19.760;2022-08-21T08:07:52;23.42;;;13.07;;
21354;SDS011;10835;50.148;19.760;2022-08-21T08:10:20;16.70;;;11.75;;
21354;SDS011;10835;50.148;19.760;2022-08-21T08:12:51;22.98;;;13.23;;
21354;SDS011;10835;50.148;19.760;2022-08-21T08:15:22;24.13;;;13.40;;
21354;SDS011;10835;50.148;19.760;2022-08-21T08:17:52;25.17;;;13.73;;
21354;SDS011;10835;50.148;19.760;2022-08-21T08:20:21;25.92;;;13.65;;
21354;SDS011;10835;50.148;19.760;2022-08-21T08:22:51;28.85;;;13.93;;
21354;SDS011;10835;50.148;19.760;2022-08-21T08:25:21;26.90;;;14.23;;
21354;SDS011;10835;50.148;19.760;2022-08-21T08:27:51;18.02;;;10.93;;
21354;SDS011;10835;50.148;19.760;2022-08-21T08:30:19;20.40;;;13.98;;
21354;SDS011;10835;50.148;19.760;2022-08-21T08:32:50;21.52;;;13.93;;
21354;SDS011;10835;50.148;19.760;2022-08-21T08:35:18;25.42;;;15.02;;
21354;SDS011;10835;50.148;19.760;2022-08-21T08:37:50;21.08;;;12.82;;
21354;SDS011;10835;50.148;19.760;2022-08-21T08:40:21;19.95;;;12.30;;
21354;SDS011;10835;50.148;19.760;2022-08-21T08:42:57;22.80;;;12.75;;
21354;SDS011;10835;50.148;19.760;2022-08-21T08:45:26;22.48;;;14.35;;
21354;SDS011;10835;50.148;19.760;2022-08-21T08:48:00;22.73;;;13.15;;
21354;SDS011;10835;50.148;19.760;2022-08-21T08:50:40;27.02;;;14.35;;
21354;SDS011;10835;50.148;19.760;2022-08-21T08:53:14;21.13;;;13.38;;
21354;SDS011;10835;50.148;19.760;2022-08-21T08:55:48;29.20;;;16.00;;
21354;SDS011;10835;50.148;19.760;2022-08-21T08:58:22;24.40;;;15.07;;
21354;SDS011;10835;50.148;19.760;2022-08-21T09:00:52;26.50;;;17.58;;
21354;SDS011;10835;50.148;19.760;2022-08-21T09:03:22;24.70;;;15.63;;
21354;SDS011;10835;50.148;19.760;2022-08-21T09:05:53;23.25;;;15.75;;
21354;SDS011;10835;50.148;19.760;2022-08-21T09:08:38;26.90;;;15.82;;
21354;SDS011;10835;50.148;19.760;2022-08-21T09:11:17;24.92;;;16.15;;
21354;SDS011;10835;50.148;19.760;2022-08-21T09:13:55;31.95;;;18.33;;
21354;SDS011;10835;50.148;19.760;2022-08-21T09:16:33;24.63;;;16.92;;
21354;SDS011;10835;50.148;19.760;2022-08-21T09:19:21;25.83;;;16.33;;
21354;SDS011;10835;50.148;19.760;2022-08-21T09:22:02;25.23;;;16.48;;
21354;SDS011;10835;50.148;19.760;2022-08-21T09:24:38;31.05;;;16.85;;
21354;SDS011;10835;50.148;19.760;2022-08-21T09:27:18;20.77;;;15.27;;
21354;SDS011;10835;50.148;19.760;2022-08-21T09:29:49;20.80;;;14.82;;
21354;SDS011;10835;50.148;19.760;2022-08-21T09:32:21;25.38;;;15.27;;
21354;SDS011;10835;50.148;19.760;2022-08-21T09:35:05;27.20;;;16.40;;
21354;SDS011;10835;50.148;19.760;2022-08-21T09:37:44;25.90;;;17.58;;
21354;SDS011;10835;50.148;19.760;2022-08-21T09:40:27;22.63;;;16.40;;
21354;SDS011;10835;50.148;19.760;2022-08-21T09:43:00;29.42;;;17.35;;
21354;SDS011;10835;50.148;19.760;2022-08-21T09:45:33;27.85;;;17.58;;
21354;SDS011;10835;50.148;19.760;2022-08-21T09:48:08;26.88;;;18.88;;
21354;SDS011;10835;50.148;19.760;2022-08-21T09:50:38;25.67;;;18.67;;
21354;SDS011;10835;50.148;19.760;2022-08-21T09:53:14;31.95;;;19.17;;
21354;SDS011;10835;50.148;19.760;2022-08-21T09:55:49;28.45;;;18.50;;
21354;SDS011;10835;50.148;19.760;2022-08-21T09:58:40;27.45;;;17.17;;
21354;SDS011;10835;50.148;19.760;2022-08-21T10:01:14;25.25;;;15.13;;
21354;SDS011;10835;50.148;19.760;2022-08-21T10:03:48;29.42;;;17.33;;
21354;SDS011;10835;50.148;19.760;2022-08-21T10:06:28;24.77;;;14.70;;
21354;SDS011;10835;50.148;19.760;2022-08-21T10:09:03;22.70;;;14.50;;
21354;SDS011;10835;50.148;19.760;2022-08-21T10:11:32;28.65;;;15.15;;
21354;SDS011;10835;50.148;19.760;2022-08-21T10:14:04;21.88;;;14.23;;
21354;SDS011;10835;50.148;19.760;2022-08-21T10:16:46;27.42;;;15.38;;
21354;SDS011;10835;50.148;19.760;2022-08-21T10:19:38;26.17;;;14.93;;
21354;SDS011;10835;50.148;19.760;2022-08-21T10:22:19;22.63;;;13.07;;
21354;SDS011;10835;50.148;19.760;2022-08-21T10:24:58;21.70;;;13.82;;
21354;SDS011;10835;50.148;19.760;2022-08-21T10:27:37;21.73;;;13.82;;
21354;SDS011;10835;50.148;19.760;2022-08-21T10:30:12;25.73;;;14.40;;
21354;SDS011;10835;50.148;19.760;2022-08-21T10:32:46;27.90;;;14.55;;
21354;SDS011;10835;50.148;19.760;2022-08-21T10:35:31;23.10;;;13.07;;
21354;SDS011;10835;50.148;19.760;2022-08-21T10:38:10;22.55;;;14.05;;
21354;SDS011;10835;50.148;19.760;2022-08-21T10:41:21;19.08;;;13.13;;
21354;SDS011;10835;50.148;19.760;2022-08-21T10:43:59;19.55;;;13.07;;
21354;SDS011;10835;50.148;19.760;2022-08-21T10:46:36;24.65;;;13.15;;
21354;SDS011;10835;50.148;19.760;2022-08-21T10:49:16;25.65;;;14.88;;
21354;SDS011;10835;50.148;19.760;2022-08-21T10:51:52;22.20;;;13.77;;
21354;SDS011;10835;50.148;19.760;2022-08-21T10:54:26;20.00;;;11.93;;
21354;SDS011;10835;50.148;19.760;2022-08-21T10:57:04;23.00;;;13.68;;
21354;SDS011;10835;50.148;19.760;2022-08-21T10:59:41;24.92;;;13.82;;
21354;SDS011;10835;50.148;19.760;2022-08-21T11:02:15;18.55;;;12.93;;
21354;SDS011;10835;50.148;19.760;2022-08-21T11:04:52;19.63;;;12.68;;
21354;SDS011;10835;50.148;19.760;2022-08-21T11:07:26;20.83;;;12.93;;
21354;SDS011;10835;50.148;19.760;2022-08-21T11:10:03;21.92;;;12.50;;
21354;SDS011;10835;50.148;19.760;2022-08-21T11:12:41;20.15;;;12.02;;
21354;SDS011;10835;50.148;19.760;2022-08-21T11:15:22;19.90;;;11.88;;
21354;SDS011;10835;50.148;19.760;2022-08-21T11:17:59;19.45;;;12.18;;
21354;SDS011;10835;50.148;19.760;2022-08-21T11:20:35;22.30;;;11.57;;
21354;SDS011;10835;50.148;19.760;2022-08-21T11:23:11;18.55;;;11.63;;
21354;SDS011;10835;50.148;19.760;2022-08-21T11:25:46;19.40;;;11.57;;
21354;SDS011;10835;50.148;19.760;2022-08-21T11:28:21;16.23;;;10.75;;
21354;SDS011;10835;50.148;19.760;2022-08-21T11:30:57;17.38;;;11.90;;
21354;SDS011;10835;50.148;19.760;2022-08-21T11:33:31;18.58;;;9.63;;
21354;SDS011;10835;50.148;19.760;2022-08-21T11:36:13;14.25;;;10.15;;
21354;SDS011;10835;50.148;19.760;2022-08-21T11:38:49;15.00;;;8.57;;
21354;SDS011;10835;50.148;19.760;2022-08-21T11:41:28;12.20;;;7.70;;
21354;SDS011;10835;50.148;19.760;2022-08-21T11:44:02;13.13;;;8.05;;
21354;SDS011;10835;50.148;19.760;2022-08-21T11:46:41;17.30;;;8.93;;
21354;SDS011;10835;50.148;19.760;2022-08-21T11:49:18;13.07;;;7.30;;
21354;SDS011;10835;50.148;19.760;2022-08-21T11:52:01;13.20;;;8.32;;
21354;SDS011;10835;50.148;19.760;2022-08-21T11:54:39;13.93;;;7.45;;
21354;SDS011;10835;50.148;19.760;2022-08-21T11:57:14;11.75;;;7.38;;
21354;SDS011;10835;50.148;19.760;2022-08-21T11:59:49;13.27;;;7.45;;
21354;SDS011;10835;50.148;19.760;2022-08-21T12:02:27;11.18;;;6.95;;
21354;SDS011;10835;50.148;19.760;2022-08-21T12:04:59;12.18;;;6.38;;
21354;SDS011;10835;50.148;19.760;2022-08-21T12:07:36;11.77;;;6.70;;
21354;SDS011;10835;50.148;19.760;2022-08-21T12:10:08;8.57;;;5.95;;
21354;SDS011;10835;50.148;19.760;2022-08-21T12:12:39;8.80;;;5.85;;
21354;SDS011;10835;50.148;19.760;2022-08-21T12:15:14;9.45;;;5.68;;
21354;SDS011;10835;50.148;19.760;2022-08-21T12:17:57;7.88;;;5.35;;
21354;SDS011;10835;50.148;19.760;2022-08-21T12:20:34;8.82;;;4.97;;
21354;SDS011;10835;50.148;19.760;2022-08-21T12:23:25;13.68;;;5.80;;
21354;SDS011;10835;50.148;19.760;2022-08-21T12:26:03;7.15;;;5.20;;
21354;SDS011;10835;50.148;19.760;2022-08-21T12:29:03;7.05;;;4.68;;
21354;SDS011;10835;50.148;19.760;2022-08-21T12:31:34;9.13;;;5.68;;
21354;SDS011;10835;50.148;19.760;2022-08-21T12:34:02;7.28;;;4.55;;
21354;SDS011;10835;50.148;19.760;2022-08-21T12:36:40;5.88;;;4.20;;
21354;SDS011;10835;50.148;19.760;2022-08-21T12:39:13;6.13;;;3.95;;
21354;SDS011;10835;50.148;19.760;2022-08-21T12:41:48;8.45;;;4.50;;
21354;SDS011;10835;50.148;19.760;2022-08-21T12:44:26;7.03;;;4.78;;
21354;SDS011;10835;50.148;19.760;2022-08-21T12:47:01;5.57;;;4.30;;
21354;SDS011;10835;50.148;19.760;2022-08-21T12:49:31;7.65;;;4.30;;
21354;SDS011;10835;50.148;19.760;2022-08-21T12:52:03;6.13;;;3.97;;
21354;SDS011;10835;50.148;19.760;2022-08-21T12:54:41;4.80;;;3.28;;
21354;SDS011;10835;50.148;19.760;2022-08-21T12:57:18;7.18;;;4.20;;
21354;SDS011;10835;50.148;19.760;2022-08-21T12:59:54;5.28;;;3.35;;
21354;SDS011;10835;50.148;19.760;2022-08-21T13:02:25;6.00;;;4.00;;
21354;SDS011;10835;50.148;19.760;2022-08-21T13:04:57;7.30;;;4.20;;
21354;SDS011;10835;50.148;19.760;2022-08-21T13:07:29;4.38;;;3.42;;
21354;SDS011;10835;50.148;19.760;2022-08-21T13:10:02;5.47;;;3.25;;
21354;SDS011;10835;50.148;19.760;2022-08-21T13:12:32;5.10;;;3.70;;
21354;SDS011;10835;50.148;19.760;2022-08-21T13:15:04;4.85;;;3.42;;
21354;SDS011;10835;50.148;19.760;2022-08-21T13:17:36;6.60;;;3.90;;
21354;SDS011;10835;50.148;19.760;2022-08-21T13:20:08;6.93;;;3.60;;
21354;SDS011;10835;50.148;19.760;2022-08-21T13:22:46;5.40;;;3.53;;
21354;SDS011;10835;50.148;19.760;2022-08-21T13:25:16;7.05;;;4.00;;
21354;SDS011;10835;50.148;19.760;2022-08-21T13:27:56;5.30;;;3.80;;
21354;SDS011;10835;50.148;19.760;2022-08-21T13:30:26;5.65;;;3.20;;
21354;SDS011;10835;50.148;19.760;2022-08-21T13:32:55;4.15;;;2.50;;
21354;SDS011;10835;50.148;19.760;2022-08-21T13:35:27;4.78;;;1.98;;
21354;SDS011;10835;50.148;19.760;2022-08-21T13:37:58;3.53;;;2.05;;
21354;SDS011;10835;50.148;19.760;2022-08-21T13:40:30;4.03;;;2.08;;
21354;SDS011;10835;50.148;19.760;2022-08-21T13:43:09;6.97;;;2.33;;
21354;SDS011;10835;50.148;19.760;2022-08-21T13:45:47;3.65;;;2.20;;
21354;SDS011;10835;50.148;19.760;2022-08-21T13:48:17;8.60;;;2.63;;
21354;SDS011;10835;50.148;19.760;2022-08-21T13:50:46;3.10;;;2.30;;
21354;SDS011;10835;50.148;19.760;2022-08-21T13:53:23;4.65;;;3.05;;
21354;SDS011;10835;50.148;19.760;2022-08-21T13:55:58;6.78;;;2.95;;
21354;SDS011;10835;50.148;19.760;2022-08-21T13:58:28;5.80;;;3.38;;
21354;SDS011;10835;50.148;19.760;2022-08-21T14:00:58;6.70;;;2.85;;
21354;SDS011;10835;50.148;19.760;2022-08-21T14:03:33;4.93;;;2.67;;
21354;SDS011;10835;50.148;19.760;2022-08-21T14:06:03;1.95;;;1.65;;
21354;SDS011;10835;50.148;19.760;2022-08-21T14:08:39;2.33;;;1.45;;
21354;SDS011;10835;50.148;19.760;2022-08-21T14:11:11;2.08;;;1.55;;
21354;SDS011;10835;50.148;19.760;2022-08-21T14:13:41;1.73;;;1.10;;
21354;SDS011;10835;50.148;19.760;2022-08-21T14:16:13;1.75;;;1.35;;
21354;SDS011;10835;50.148;19.760;2022-08-21T14:18:48;1.55;;;1.45;;
21354;SDS011;10835;50.148;19.760;2022-08-21T14:21:29;2.63;;;1.33;;
21354;SDS011;10835;50.148;19.760;2022-08-21T14:24:01;3.05;;;1.55;;
21354;SDS011;10835;50.148;19.760;2022-08-21T14:26:32;3.05;;;1.65;;
21354;SDS011;10835;50.148;19.760;2022-08-21T14:29:09;2.17;;;1.75;;
21354;SDS011;10835;50.148;19.760;2022-08-21T14:31:40;1.73;;;1.50;;
21354;SDS011;10835;50.148;19.760;2022-08-21T14:34:10;1.60;;;1.50;;
21354;SDS011;10835;50.148;19.760;2022-08-21T14:36:46;2.92;;;1.48;;
21354;SDS011;10835;50.148;19.760;2022-08-21T14:39:14;7.22;;;1.77;;
21354;SDS011;10835;50.148;19.760;2022-08-21T14:41:48;2.95;;;1.75;;